createdAt,value
2018-10-07T00:00:05.761Z,11.60
2018-10-07T00:02:34.749Z,11.53
2018-10-07T00:05:03.585Z,12.43
2018-10-07T00:07:32.098Z,11.43
2018-10-07T00:10:00.664Z,13.77
2018-10-07T00:12:29.553Z,11.23
2018-10-07T00:14:58.110Z,10.87
2018-10-07T00:17:26.722Z,11.05
2018-10-07T00:19:55.315Z,17.20
2018-10-07T00:22:23.895Z,20.92
2018-10-07T00:24:52.422Z,18.05
2018-10-07T00:27:20.958Z,11.25
2018-10-07T00:29:49.517Z,11.73
2018-10-07T00:32:18.779Z,12.25
2018-10-07T00:34:48.666Z,13.30
2018-10-07T00:37:17.626Z,14.17
2018-10-07T00:39:46.311Z,11.63
2018-10-07T00:47:13.758Z,11.93
2018-10-07T00:49:42.618Z,11.20
2018-10-07T00:52:11.379Z,13.60
2018-10-07T00:54:40.472Z,13.57
2018-10-07T00:57:09.032Z,12.63
2018-10-07T00:59:37.661Z,11.25
2018-10-07T01:02:06.499Z,12.10
2018-10-07T01:04:35.298Z,13.50
2018-10-07T01:07:03.871Z,15.13
2018-10-07T01:09:32.457Z,10.80
2018-10-07T01:12:00.963Z,12.00
2018-10-07T01:14:29.466Z,15.80
2018-10-07T01:16:58.892Z,15.60
2018-10-07T01:19:27.470Z,11.03
2018-10-07T01:21:55.958Z,10.70
2018-10-07T01:24:24.665Z,10.18
2018-10-07T01:26:53.183Z,10.17
2018-10-07T01:29:22.481Z,10.40
2018-10-07T01:31:51.869Z,9.43
2018-10-07T01:34:20.654Z,12.87
2018-10-07T01:36:49.990Z,10.30
2018-10-07T01:39:19.093Z,12.73
2018-10-07T01:41:47.609Z,13.00
2018-10-07T01:49:11.183Z,11.53
2018-10-07T01:51:39.834Z,15.77
2018-10-07T01:54:09.385Z,11.33
2018-10-07T01:56:39.378Z,9.50
2018-10-07T01:59:07.911Z,11.50
2018-10-07T02:01:36.527Z,9.25
2018-10-07T02:04:06.085Z,11.30
2018-10-07T02:06:34.637Z,9.10
2018-10-07T02:09:03.208Z,9.20
2018-10-07T02:11:31.830Z,12.43
2018-10-07T02:14:00.454Z,11.23
2018-10-07T02:16:28.838Z,14.23
2018-10-07T02:18:57.792Z,8.80
2018-10-07T02:21:26.291Z,14.13
2018-10-07T02:23:54.794Z,8.33
2018-10-07T02:26:23.367Z,9.67
2018-10-07T02:28:51.922Z,9.00
2018-10-07T02:31:20.557Z,9.47
2018-10-07T02:33:49.201Z,10.50
2018-10-07T02:36:19.104Z,9.23
2018-10-07T02:38:47.684Z,9.50
2018-10-07T02:46:09.451Z,9.13
2018-10-07T02:48:38.111Z,15.33
2018-10-07T02:51:06.793Z,10.53
2018-10-07T02:53:35.403Z,11.40
2018-10-07T02:56:04.094Z,13.10
2018-10-07T02:58:32.683Z,8.83
2018-10-07T03:01:01.266Z,12.70
2018-10-07T03:03:29.791Z,11.47
2018-10-07T03:05:58.322Z,9.73
2018-10-07T03:08:27.385Z,11.53
2018-10-07T03:10:55.878Z,15.63
2018-10-07T03:13:24.462Z,8.80
2018-10-07T03:15:53.054Z,9.40
2018-10-07T03:18:21.597Z,9.03
2018-10-07T03:20:50.399Z,16.37
2018-10-07T03:23:19.106Z,13.73
2018-10-07T03:25:47.694Z,10.90
2018-10-07T03:33:11.179Z,14.63
2018-10-07T03:35:39.775Z,9.83
2018-10-07T03:38:08.336Z,7.90
2018-10-07T03:40:36.931Z,8.60
2018-10-07T03:43:05.488Z,9.85
2018-10-07T03:45:34.022Z,8.63
2018-10-07T03:48:02.921Z,9.65
2018-10-07T03:50:31.437Z,11.17
2018-10-07T03:53:00.050Z,8.53
2018-10-07T03:55:28.647Z,9.28
2018-10-07T03:57:57.799Z,9.77
2018-10-07T04:00:26.386Z,9.28
2018-10-07T04:02:54.999Z,9.50
2018-10-07T04:05:23.593Z,8.98
2018-10-07T04:07:52.163Z,9.37
2018-10-07T04:10:20.775Z,10.30
2018-10-07T04:12:49.343Z,10.27
2018-10-07T04:15:17.852Z,9.73
2018-10-07T04:17:46.718Z,9.43
2018-10-07T04:25:15.447Z,10.63
2018-10-07T04:27:44.051Z,10.83
2018-10-07T04:30:12.547Z,10.20
2018-10-07T04:32:41.134Z,9.40
2018-10-07T04:35:09.724Z,12.30
2018-10-07T04:37:38.482Z,10.87
2018-10-07T04:40:07.503Z,8.80
2018-10-07T04:42:36.077Z,10.00
2018-10-07T04:45:04.674Z,10.70
2018-10-07T04:47:33.569Z,11.30
2018-10-07T04:50:02.115Z,12.40
2018-10-07T04:52:30.624Z,12.60
2018-10-07T04:54:59.175Z,9.43
2018-10-07T04:57:27.660Z,12.60
2018-10-07T04:59:56.659Z,9.20
2018-10-07T05:02:25.382Z,9.53
2018-10-07T05:04:53.934Z,13.10
2018-10-07T05:07:22.514Z,9.50
2018-10-07T05:10:00.938Z,9.33
2018-10-07T05:12:29.977Z,19.40
2018-10-07T05:14:58.533Z,11.33
2018-10-07T05:17:27.523Z,9.47
2018-10-07T05:19:56.054Z,12.13
2018-10-07T05:22:24.595Z,11.30
2018-10-07T05:24:53.153Z,11.30
2018-10-07T05:27:21.707Z,13.97
2018-10-07T05:29:50.307Z,11.80
2018-10-07T05:32:18.835Z,10.50
2018-10-07T05:34:47.323Z,9.67
2018-10-07T05:37:17.530Z,10.08
2018-10-07T05:39:46.098Z,11.23
2018-10-07T05:47:11.463Z,9.23
2018-10-07T05:49:39.927Z,10.30
2018-10-07T05:52:08.410Z,8.73
2018-10-07T05:54:37.022Z,7.73
2018-10-07T05:57:05.522Z,8.05
2018-10-07T05:59:34.091Z,11.48
2018-10-07T06:02:05.555Z,13.70
2018-10-07T06:04:41.082Z,9.28
2018-10-07T06:07:09.760Z,10.20
2018-10-07T06:09:38.806Z,9.20
2018-10-07T06:12:07.515Z,8.53
2018-10-07T06:14:47.397Z,8.37
2018-10-07T06:22:17.094Z,14.60
2018-10-07T06:24:45.619Z,8.87
2018-10-07T06:32:11.552Z,8.20
2018-10-07T06:34:40.060Z,9.50
2018-10-07T06:37:08.579Z,10.07
2018-10-07T06:39:37.609Z,9.77
2018-10-07T06:42:06.110Z,9.97
2018-10-07T06:44:34.598Z,8.40
2018-10-07T06:47:03.145Z,7.63
2018-10-07T06:49:31.674Z,13.53
2018-10-07T06:52:00.242Z,8.50
2018-10-07T06:54:28.894Z,8.58
2018-10-07T06:56:58.624Z,8.70
2018-10-07T06:59:27.161Z,12.03
2018-10-07T07:01:56.477Z,7.20
2018-10-07T07:04:25.355Z,6.60
2018-10-07T07:06:54.421Z,7.20
2018-10-07T07:09:23.027Z,7.00
2018-10-07T07:11:51.544Z,6.12
2018-10-07T07:14:20.039Z,12.37
2018-10-07T07:16:48.541Z,6.55
2018-10-07T07:19:17.466Z,8.27
2018-10-07T07:21:45.986Z,8.23
2018-10-07T07:29:11.797Z,9.30
2018-10-07T07:31:40.293Z,7.23
2018-10-07T07:34:08.775Z,7.03
2018-10-07T07:36:38.143Z,6.50
2018-10-07T07:39:07.102Z,7.23
2018-10-07T07:41:35.966Z,9.90
2018-10-07T07:44:04.482Z,12.73
2018-10-07T07:46:32.946Z,11.00
2018-10-07T07:49:01.481Z,11.12
2018-10-07T07:51:30.849Z,13.43
2018-10-07T07:53:59.342Z,10.57
2018-10-07T07:56:27.828Z,15.40
2018-10-07T07:58:56.333Z,18.90
2018-10-07T08:01:24.818Z,11.50
2018-10-07T08:03:53.287Z,7.83
2018-10-07T08:06:22.050Z,7.70
2018-10-07T08:08:50.619Z,8.73
2018-10-07T08:11:19.092Z,13.27
2018-10-07T08:13:47.836Z,7.20
2018-10-07T08:16:17.469Z,11.45
2018-10-07T08:18:45.934Z,7.97
2018-10-07T08:26:13.469Z,10.30
2018-10-07T08:28:41.959Z,7.47
2018-10-07T08:31:10.479Z,7.50
2018-10-07T08:33:39.032Z,11.23
2018-10-07T08:36:07.571Z,8.70
2018-10-07T08:38:36.242Z,10.83
2018-10-07T08:41:06.237Z,7.70
2018-10-07T08:43:34.730Z,8.03
2018-10-07T08:46:03.205Z,9.30
2018-10-07T08:48:32.097Z,8.80
2018-10-07T08:51:00.611Z,6.77
2018-10-07T08:53:29.099Z,12.70
2018-10-07T08:55:57.701Z,8.47
2018-10-07T08:58:26.216Z,7.05
2018-10-07T09:00:54.783Z,6.97
2018-10-07T09:03:23.332Z,14.07
2018-10-07T09:05:51.827Z,7.13
2018-10-07T09:08:21.019Z,8.23
2018-10-07T09:10:49.558Z,8.88
2018-10-07T09:13:18.638Z,9.83
2018-10-07T09:15:47.322Z,9.27
2018-10-07T09:18:17.646Z,7.10
2018-10-07T09:20:46.175Z,11.77
2018-10-07T09:28:09.904Z,7.10
2018-10-07T09:30:38.581Z,7.20
2018-10-07T09:33:07.050Z,7.10
2018-10-07T09:35:35.640Z,6.70
2018-10-07T09:38:04.136Z,7.47
2018-10-07T09:40:32.624Z,9.87
2018-10-07T09:43:01.200Z,19.90
2018-10-07T09:45:35.899Z,8.30
2018-10-07T09:48:04.491Z,7.28
2018-10-07T09:50:32.991Z,7.13
2018-10-07T09:53:01.467Z,9.75
2018-10-07T09:55:30.316Z,12.47
2018-10-07T09:57:58.845Z,7.40
2018-10-07T10:00:32.791Z,8.23
2018-10-07T10:03:01.274Z,8.50
2018-10-07T10:05:29.798Z,8.77
2018-10-07T10:07:58.342Z,8.90
2018-10-07T10:10:27.484Z,6.93
2018-10-07T10:12:56.239Z,11.50
2018-10-07T10:15:24.842Z,8.47
2018-10-07T10:18:11.070Z,6.67
2018-10-07T10:20:49.774Z,8.13
2018-10-07T10:27:36.721Z,13.03
2018-10-07T10:30:16.559Z,6.70
2018-10-07T10:32:55.617Z,6.13
2018-10-07T10:35:36.515Z,8.43
2018-10-07T10:38:27.616Z,7.00
2018-10-07T10:41:01.683Z,5.40
2018-10-07T10:43:47.126Z,10.53
2018-10-07T10:47:21.822Z,6.60
2018-10-07T10:50:27.866Z,5.07
2018-10-07T10:54:09.694Z,6.10
2018-10-07T10:56:42.466Z,6.40
2018-10-07T10:59:12.874Z,7.00
2018-10-07T11:03:52.822Z,9.37
2018-10-07T11:06:29.923Z,5.62
2018-10-07T11:09:06.786Z,7.92
2018-10-07T11:11:43.383Z,5.60
2018-10-07T11:16:42.569Z,15.20
2018-10-07T11:19:24.205Z,5.87
2018-10-07T11:22:29.670Z,5.90
2018-10-07T11:25:05.571Z,4.90
2018-10-07T11:27:42.038Z,11.78
2018-10-07T11:30:18.857Z,6.33
2018-10-07T11:34:59.979Z,7.80
2018-10-07T11:37:40.657Z,4.97
2018-10-07T11:40:29.818Z,5.47
2018-10-07T11:43:07.718Z,7.13
2018-10-07T11:45:41.812Z,8.60
2018-10-07T11:48:27.481Z,6.53
2018-10-07T11:53:07.696Z,5.20
2018-10-07T11:55:36.333Z,5.80
2018-10-07T11:58:04.882Z,5.93
2018-10-07T12:00:33.422Z,10.53
2018-10-07T12:03:02.026Z,7.00
2018-10-07T12:05:30.575Z,5.97
2018-10-07T12:07:59.758Z,5.70
2018-10-07T12:10:29.256Z,5.50
2018-10-07T12:12:57.827Z,4.57
2018-10-07T12:15:26.423Z,7.03
2018-10-07T12:17:54.910Z,24.40
2018-10-07T12:20:23.407Z,6.53
2018-10-07T12:22:52.158Z,5.33
2018-10-07T12:25:20.668Z,6.25
2018-10-07T12:27:49.176Z,5.90
2018-10-07T12:30:17.730Z,6.20
2018-10-07T12:32:46.213Z,8.70
2018-10-07T12:40:11.115Z,6.40
2018-10-07T12:42:39.810Z,7.50
2018-10-07T12:45:09.596Z,8.63
2018-10-07T12:47:38.151Z,7.13
2018-10-07T12:50:06.729Z,7.70
2018-10-07T12:52:36.394Z,6.03
2018-10-07T12:55:04.965Z,10.00
2018-10-07T12:57:33.670Z,8.80
2018-10-07T13:00:02.144Z,6.83
2018-10-07T13:02:30.663Z,10.48
2018-10-07T13:04:59.198Z,11.40
2018-10-07T13:07:27.722Z,13.95
2018-10-07T13:09:56.661Z,18.63
2018-10-07T13:12:25.174Z,5.17
2018-10-07T13:14:54.211Z,5.60
2018-10-07T13:17:22.700Z,4.93
2018-10-07T13:19:52.215Z,11.03
2018-10-07T13:22:20.690Z,8.50
2018-10-07T13:24:49.219Z,8.63
2018-10-07T13:27:17.792Z,4.93
2018-10-07T13:29:46.288Z,5.43
2018-10-07T13:37:11.690Z,6.13
2018-10-07T13:39:40.175Z,5.07
2018-10-07T13:42:08.669Z,5.20
2018-10-07T13:44:37.330Z,4.37
2018-10-07T13:47:05.876Z,7.37
2018-10-07T13:49:34.419Z,7.17
2018-10-07T13:52:02.933Z,6.20
2018-10-07T13:54:31.415Z,6.58
2018-10-07T13:56:59.883Z,4.83
2018-10-07T13:59:30.296Z,5.00
2018-10-07T14:01:59.117Z,5.30
2018-10-07T14:04:27.912Z,4.65
2018-10-07T14:06:56.586Z,4.93
2018-10-07T14:09:25.094Z,4.43
2018-10-07T14:11:53.587Z,7.53
2018-10-07T14:14:22.831Z,5.33
2018-10-07T14:16:52.979Z,5.50
2018-10-07T14:19:21.566Z,5.04
2018-10-07T14:21:50.150Z,4.80
2018-10-07T14:24:18.669Z,5.80
2018-10-07T14:26:47.151Z,9.00
2018-10-07T14:29:17.411Z,6.50
2018-10-07T14:31:45.920Z,7.50
2018-10-07T14:39:14.085Z,9.30
2018-10-07T14:41:42.538Z,7.33
2018-10-07T14:44:11.017Z,8.63
2018-10-07T14:46:39.685Z,7.20
2018-10-07T14:49:08.347Z,9.80
2018-10-07T14:51:36.955Z,8.87
2018-10-07T14:54:05.535Z,11.13
2018-10-07T14:56:34.235Z,8.77
2018-10-07T14:59:02.793Z,6.40
2018-10-07T15:01:31.702Z,11.33
2018-10-07T15:04:00.234Z,13.10
2018-10-07T15:06:28.763Z,12.67
2018-10-07T15:08:57.291Z,12.73
2018-10-07T15:11:25.814Z,6.77
2018-10-07T15:13:54.357Z,7.00
2018-10-07T15:16:22.950Z,9.13
2018-10-07T15:18:52.033Z,7.72
2018-10-07T15:21:21.164Z,6.50
2018-10-07T15:23:50.216Z,9.03
2018-10-07T15:26:18.687Z,7.10
2018-10-07T15:28:47.188Z,8.10
2018-10-07T15:36:09.478Z,8.93
2018-10-07T15:38:38.005Z,6.33
2018-10-07T15:41:07.023Z,6.13
2018-10-07T15:43:35.785Z,9.40
2018-10-07T15:46:04.301Z,7.87
2018-10-07T15:48:32.783Z,10.57
2018-10-07T15:51:01.279Z,6.87
2018-10-07T15:53:29.762Z,8.67
2018-10-07T15:55:58.317Z,6.47
2018-10-07T15:58:26.827Z,7.07
2018-10-07T16:00:55.308Z,6.90
2018-10-07T16:03:23.840Z,4.93
2018-10-07T16:05:52.384Z,5.73
2018-10-07T16:08:20.938Z,7.42
2018-10-07T16:10:49.457Z,9.10
2018-10-07T16:13:18.473Z,4.30
2018-10-07T16:15:47.301Z,4.47
2018-10-07T16:28:07.526Z,5.53
2018-10-07T16:30:36.011Z,4.43
2018-10-07T16:33:04.474Z,5.30
2018-10-07T16:35:32.977Z,7.00
2018-10-07T16:38:01.458Z,4.87
2018-10-07T16:40:29.946Z,6.93
2018-10-07T16:42:58.744Z,4.20
2018-10-07T16:45:27.219Z,5.10
2018-10-07T16:47:55.702Z,8.03
2018-10-07T16:50:24.339Z,8.10
2018-10-07T16:52:52.811Z,6.97
2018-10-07T16:55:21.419Z,8.68
2018-10-07T16:57:50.517Z,4.87
2018-10-07T17:00:19.090Z,7.35
2018-10-07T17:02:47.558Z,6.37
2018-10-07T17:10:13.223Z,7.00
2018-10-07T17:12:41.712Z,5.40
2018-10-07T17:15:10.330Z,4.87
2018-10-07T17:17:38.878Z,7.97
2018-10-07T17:20:07.384Z,5.10
2018-10-07T17:22:35.932Z,5.60
2018-10-07T17:25:04.655Z,5.30
2018-10-07T17:27:33.143Z,6.40
2018-10-07T17:30:01.667Z,5.40
2018-10-07T17:32:30.574Z,7.40
2018-10-07T17:34:59.076Z,6.80
2018-10-07T17:37:27.610Z,6.60
2018-10-07T17:39:56.317Z,8.43
2018-10-07T17:42:24.853Z,5.70
2018-10-07T17:44:53.443Z,7.95
2018-10-07T17:47:22.968Z,6.67
2018-10-07T17:49:51.511Z,12.07
2018-10-07T17:52:20.185Z,17.50
2018-10-07T17:54:49.223Z,10.13
2018-10-07T17:57:18.345Z,7.63
2018-10-07T17:59:47.138Z,9.90
2018-10-07T18:02:18.285Z,8.55
2018-10-07T18:04:46.865Z,7.70
2018-10-07T18:12:12.015Z,28.53
2018-10-07T18:17:03.191Z,20.00
2018-10-07T18:19:31.901Z,9.50
2018-10-07T18:22:00.902Z,10.88
2018-10-07T18:24:36.217Z,10.10
2018-10-07T18:27:05.843Z,8.77
2018-10-07T18:29:34.370Z,10.13
2018-10-07T18:32:02.980Z,8.80
2018-10-07T18:34:31.505Z,9.90
2018-10-07T18:37:00.048Z,10.40
2018-10-07T18:39:28.573Z,11.20
2018-10-07T18:41:57.329Z,7.57
2018-10-07T18:44:25.917Z,8.23
2018-10-07T18:46:54.608Z,9.00
2018-10-07T18:49:23.189Z,8.50
2018-10-07T18:51:51.923Z,8.83
2018-10-07T18:54:20.627Z,8.30
2018-10-07T18:56:49.540Z,7.80
2018-10-07T18:59:18.227Z,8.53
2018-10-07T19:01:46.991Z,7.67
2018-10-07T19:09:13.328Z,8.57
2018-10-07T19:11:41.867Z,9.60
2018-10-07T19:14:11.488Z,8.73
2018-10-07T19:16:40.469Z,10.43
2018-10-07T19:19:08.970Z,11.77
2018-10-07T19:21:37.538Z,9.93
2018-10-07T19:24:06.666Z,11.33
2018-10-07T19:26:35.465Z,17.13
2018-10-07T19:29:04.507Z,12.50
2018-10-07T19:31:33.061Z,11.77
2018-10-07T19:34:01.746Z,17.17
2018-10-07T19:36:30.387Z,12.03
2018-10-07T19:38:59.083Z,12.03
2018-10-07T19:41:27.686Z,12.97
2018-10-07T19:43:56.288Z,15.43
2018-10-07T19:46:24.894Z,15.93
2018-10-07T19:48:53.518Z,17.23
2018-10-07T19:51:22.043Z,15.63
2018-10-07T19:53:50.685Z,17.80
2018-10-07T19:56:19.680Z,18.30
2018-10-07T19:58:48.199Z,15.70
2018-10-07T20:01:17.666Z,14.87
2018-10-07T20:03:46.231Z,16.10
2018-10-07T20:16:07.326Z,13.90
2018-10-07T20:18:35.904Z,14.83
2018-10-07T20:21:05.255Z,14.55
2018-10-07T20:23:34.206Z,15.58
2018-10-07T20:26:03.243Z,13.80
2018-10-07T20:28:31.815Z,18.90
2018-10-07T20:31:00.443Z,17.93
2018-10-07T20:33:28.962Z,15.37
2018-10-07T20:35:57.538Z,17.35
2018-10-07T20:38:26.101Z,22.00
2018-10-07T20:40:54.736Z,18.90
2018-10-07T20:43:23.238Z,19.60
2018-10-07T20:45:52.058Z,21.27
2018-10-07T20:48:21.121Z,19.92
2018-10-07T20:50:49.790Z,19.30
2018-10-07T20:53:18.328Z,19.20
2018-10-07T20:55:47.171Z,21.80
2018-10-07T20:58:17.455Z,21.73
2018-10-07T21:00:46.084Z,22.50
2018-10-07T21:08:13.078Z,51.47
2018-10-07T21:10:42.036Z,53.77
2018-10-07T21:13:10.638Z,54.83
2018-10-07T21:15:39.154Z,38.07
2018-10-07T21:18:07.840Z,42.33
2018-10-07T21:20:36.349Z,50.50
2018-10-07T21:23:04.920Z,51.80
2018-10-07T21:25:33.451Z,42.30
2018-10-07T21:28:01.961Z,50.30
2018-10-07T21:30:31.942Z,45.15
2018-10-07T21:33:01.092Z,37.47
2018-10-07T21:35:29.633Z,33.35
2018-10-07T21:37:58.203Z,40.03
2018-10-07T21:40:26.694Z,32.23
2018-10-07T21:42:55.174Z,27.37
2018-10-07T21:45:23.742Z,37.17
2018-10-07T21:47:52.300Z,31.97
2018-10-07T21:50:20.844Z,28.47
2018-10-07T21:52:49.725Z,32.93
2018-10-07T21:55:18.224Z,22.57
2018-10-07T21:57:46.709Z,18.57
2018-10-07T22:03:36.278Z,17.60
2018-10-07T22:06:04.840Z,22.13
2018-10-07T22:08:33.567Z,18.23
2018-10-07T22:11:02.190Z,24.33
2018-10-07T22:13:30.737Z,20.85
2018-10-07T22:15:59.230Z,24.30
2018-10-07T22:18:28.074Z,20.23
2018-10-07T22:20:56.643Z,18.42
2018-10-07T22:23:25.222Z,17.17
2018-10-07T22:25:53.815Z,19.47
2018-10-07T22:28:22.306Z,17.90
2018-10-07T22:30:50.928Z,22.00
2018-10-07T22:33:20.282Z,21.33
2018-10-07T22:35:48.864Z,156.33
2018-10-07T22:38:17.509Z,589.37
2018-10-07T22:40:46.067Z,309.53
2018-10-07T22:48:14.544Z,372.93
2018-10-07T22:50:43.033Z,219.80
2018-10-07T22:53:11.542Z,160.17
2018-10-07T22:55:40.870Z,167.50
2018-10-07T22:58:09.535Z,190.23
2018-10-07T23:00:38.059Z,179.60
2018-10-07T23:03:06.679Z,223.43
2018-10-07T23:05:35.212Z,94.23
2018-10-07T23:08:03.695Z,167.03
2018-10-07T23:10:32.283Z,125.37
2018-10-07T23:13:01.840Z,135.73
2018-10-07T23:15:30.366Z,122.77
2018-10-07T23:17:59.091Z,86.80
2018-10-07T23:20:27.618Z,95.17
2018-10-07T23:22:56.127Z,134.70
2018-10-07T23:25:24.670Z,142.10
2018-10-07T23:27:53.190Z,137.07
2018-10-07T23:30:21.756Z,64.13
2018-10-07T23:32:50.300Z,54.13
2018-10-07T23:35:19.220Z,37.53
2018-10-07T23:37:47.705Z,37.17
2018-10-07T23:45:09.703Z,32.10
2018-10-07T23:47:38.223Z,42.47
2018-10-07T23:50:06.791Z,42.47
2018-10-07T23:52:35.367Z,35.40
2018-10-07T23:55:03.931Z,32.30
2018-10-07T23:57:32.489Z,35.63
